Meadow Lands, Pennsylvania
Current Conditions -  °F | °C
As of 8:55 AM on Monday 24 Nov 2014 (Local Time) from KAFJ Reporting Station
Broken Clouds Broken Clouds  
Wind Chill: 63°   Ceiling: 4600
Heat Index: 63°   Visibility: 10mi
Dew Point: 50°   Wind: 13mph
Humidity: 63%   Direction: 190°S
Pressure: 29.47"   Gusts: 18mph
Location:  40.22°N, 80.22°W
Report Text: KAFJ 241355Z 19011G16KT 10SM BKN046 BKN065 17/10 A2947 RMK AO1
Loading
Personal Weather Stations






























Interactive Weather Map New forecast layout! Learn more

10-Day Weather Forecast

Advertisements
Track Severe Weather on mobile